createdAt,value
2023-02-28T00:01:24.902Z,3.65
2023-02-28T00:03:51.425Z,3.92
2023-02-28T00:06:18.101Z,3.72
2023-02-28T00:08:44.558Z,4.00
2023-02-28T00:11:13.489Z,3.75
2023-02-28T00:13:43.596Z,3.58
2023-02-28T00:16:19.001Z,3.53
2023-02-28T00:18:45.766Z,3.28
2023-02-28T00:21:12.240Z,3.88
2023-02-28T00:23:38.827Z,3.88
2023-02-28T00:26:05.569Z,3.97
2023-02-28T00:28:32.256Z,3.70
2023-02-28T00:30:58.841Z,3.85
2023-02-28T00:33:25.337Z,3.75
2023-02-28T00:35:51.780Z,3.63
2023-02-28T00:38:18.343Z,3.90
2023-02-28T00:40:44.764Z,3.70
2023-02-28T00:43:16.787Z,3.58
2023-02-28T00:45:43.230Z,3.55
2023-02-28T00:48:09.630Z,3.95
2023-02-28T00:50:36.008Z,3.42
2023-02-28T00:53:02.459Z,3.90
2023-02-28T00:55:28.876Z,3.80
2023-02-28T00:57:55.575Z,4.10
2023-02-28T01:00:22.155Z,3.40
2023-02-28T01:02:48.599Z,3.42
2023-02-28T01:05:15.053Z,2.95
2023-02-28T01:07:41.463Z,3.63
2023-02-28T01:10:08.981Z,3.47
2023-02-28T01:12:35.403Z,3.72
2023-02-28T01:15:01.837Z,3.53
2023-02-28T01:17:28.249Z,4.43
2023-02-28T01:19:56.703Z,4.55
2023-02-28T01:22:24.241Z,4.68
2023-02-28T01:24:51.197Z,4.57
2023-02-28T01:27:17.583Z,4.40
2023-02-28T01:29:43.993Z,4.70
2023-02-28T01:32:10.398Z,4.95
2023-02-28T01:34:36.847Z,4.80
2023-02-28T01:37:04.412Z,4.40
2023-02-28T01:39:30.905Z,4.10
2023-02-28T01:41:57.367Z,3.95
2023-02-28T01:45:01.360Z,4.07
2023-02-28T01:47:39.429Z,4.90
2023-02-28T01:50:10.697Z,4.30
2023-02-28T01:52:37.408Z,4.40
2023-02-28T01:55:06.806Z,4.53
2023-02-28T01:57:41.384Z,4.38
2023-02-28T02:00:15.327Z,4.40
2023-02-28T02:02:48.455Z,4.60
2023-02-28T02:05:19.620Z,4.20
2023-02-28T02:07:49.832Z,4.72
2023-02-28T02:10:18.171Z,4.75
2023-02-28T02:13:12.281Z,4.50
2023-02-28T02:18:29.554Z,4.82
2023-02-28T02:21:36.313Z,4.18
2023-02-28T02:24:15.133Z,4.05
2023-02-28T02:27:34.305Z,4.30
2023-02-28T02:30:38.635Z,4.38
2023-02-28T02:33:23.885Z,4.70
2023-02-28T02:36:03.668Z,4.60
2023-02-28T02:38:37.671Z,4.28
2023-02-28T02:41:20.412Z,4.50
2023-02-28T02:44:02.130Z,3.97
2023-02-28T02:46:35.144Z,4.20
2023-02-28T02:49:07.003Z,4.03
2023-02-28T02:51:34.991Z,3.70
2023-02-28T02:54:23.388Z,3.70
2023-02-28T02:56:51.446Z,3.88
2023-02-28T02:59:22.869Z,4.78
2023-02-28T03:01:53.349Z,4.05
2023-02-28T03:04:22.888Z,3.88
2023-02-28T03:06:51.291Z,3.50
2023-02-28T03:09:17.696Z,3.78
2023-02-28T03:11:44.180Z,3.15
2023-02-28T03:14:31.120Z,3.50
2023-02-28T03:17:04.144Z,3.40
2023-02-28T03:19:45.850Z,3.25
2023-02-28T03:22:34.217Z,3.55
2023-02-28T03:25:33.843Z,2.85
2023-02-28T03:28:28.974Z,3.08
2023-02-28T03:31:00.483Z,3.00
2023-02-28T03:33:56.662Z,2.92
2023-02-28T03:36:28.020Z,3.00
2023-02-28T03:39:04.535Z,3.10
2023-02-28T03:41:36.302Z,2.78
2023-02-28T03:44:16.458Z,2.95
2023-02-28T03:46:56.355Z,3.30
2023-02-28T03:49:35.229Z,2.90
2023-02-28T03:52:06.963Z,3.10
2023-02-28T03:54:38.652Z,3.00
2023-02-28T03:57:23.925Z,3.00
2023-02-28T04:00:12.527Z,2.70
2023-02-28T04:02:40.485Z,3.28
2023-02-28T04:05:08.548Z,2.22
2023-02-28T04:07:35.240Z,3.15
2023-02-28T04:10:01.710Z,2.65
2023-02-28T04:12:28.087Z,2.67
2023-02-28T04:14:54.499Z,2.92
2023-02-28T04:17:20.897Z,2.92
2023-02-28T04:19:47.358Z,2.63
2023-02-28T04:22:14.556Z,2.75
2023-02-28T04:24:44.073Z,2.63
2023-02-28T04:27:11.028Z,2.88
2023-02-28T04:29:37.775Z,2.97
2023-02-28T04:32:04.550Z,2.90
2023-02-28T04:34:33.218Z,3.25
2023-02-28T04:37:14.664Z,3.28
2023-02-28T04:39:42.146Z,2.88
2023-02-28T04:42:09.260Z,3.25
2023-02-28T04:44:35.650Z,3.20
2023-02-28T04:47:02.178Z,3.03
2023-02-28T04:49:28.602Z,3.28
2023-02-28T04:51:55.094Z,3.78
2023-02-28T04:54:21.487Z,3.25
2023-02-28T04:56:50.703Z,3.17
2023-02-28T04:59:17.191Z,3.35
2023-02-28T05:01:47.990Z,3.10
2023-02-28T05:04:14.870Z,3.65
2023-02-28T05:06:41.382Z,3.65
2023-02-28T05:09:07.775Z,3.70
2023-02-28T05:11:36.092Z,3.47
2023-02-28T05:14:16.054Z,3.70
2023-02-28T05:16:42.794Z,3.67
2023-02-28T05:19:09.474Z,3.17
2023-02-28T05:21:38.761Z,3.45
2023-02-28T05:24:07.349Z,2.85
2023-02-28T05:26:40.535Z,3.00
2023-02-28T05:29:07.316Z,3.33
2023-02-28T05:31:34.491Z,3.65
2023-02-28T05:34:01.219Z,2.60
2023-02-28T05:36:27.883Z,3.17
2023-02-28T05:38:54.290Z,2.60
2023-02-28T05:41:21.456Z,3.13
2023-02-28T05:43:48.410Z,2.78
2023-02-28T05:46:15.663Z,3.22
2023-02-28T05:48:43.246Z,3.10
2023-02-28T05:51:10.331Z,2.63
2023-02-28T05:53:37.010Z,2.67
2023-02-28T05:56:04.541Z,9.25
2023-02-28T05:58:32.304Z,11.75
2023-02-28T06:01:00.090Z,12.35
2023-02-28T06:03:27.586Z,8.90
2023-02-28T06:05:54.404Z,5.85
2023-02-28T06:08:20.803Z,4.25
2023-02-28T06:10:47.691Z,4.00
2023-02-28T06:13:14.156Z,4.28
2023-02-28T06:15:40.746Z,3.15
2023-02-28T06:18:07.466Z,3.70
2023-02-28T06:20:34.356Z,3.08
2023-02-28T06:23:00.829Z,3.13
2023-02-28T06:25:28.567Z,3.33
2023-02-28T06:27:56.420Z,3.13
2023-02-28T06:30:27.845Z,3.65
2023-02-28T06:32:55.570Z,3.45
2023-02-28T06:35:24.204Z,2.88
2023-02-28T06:37:50.650Z,3.17
2023-02-28T06:40:17.201Z,3.55
2023-02-28T06:42:43.964Z,2.92
2023-02-28T06:45:12.267Z,3.65
2023-02-28T06:47:41.118Z,3.72
2023-02-28T06:50:10.716Z,3.05
2023-02-28T06:52:38.266Z,3.75
2023-02-28T06:55:06.572Z,3.60
2023-02-28T06:57:34.332Z,3.33
2023-02-28T07:00:02.188Z,3.97
2023-02-28T07:02:29.128Z,3.22
2023-02-28T07:04:55.772Z,3.85
2023-02-28T07:07:22.363Z,3.42
2023-02-28T07:09:48.780Z,3.50
2023-02-28T07:12:15.218Z,3.20
2023-02-28T07:14:41.673Z,3.20
2023-02-28T07:17:09.641Z,3.13
2023-02-28T07:19:36.016Z,3.17
2023-02-28T07:22:03.840Z,3.30
2023-02-28T07:24:30.377Z,3.00
2023-02-28T07:26:57.147Z,2.80
2023-02-28T07:29:27.108Z,2.95
2023-02-28T07:31:54.231Z,3.35
2023-02-28T07:34:24.072Z,3.47
2023-02-28T07:36:54.528Z,3.53
2023-02-28T07:39:22.002Z,3.40
2023-02-28T07:41:48.895Z,3.33
2023-02-28T07:44:15.446Z,3.47
2023-02-28T07:46:41.890Z,3.50
2023-02-28T07:49:08.289Z,3.13
2023-02-28T07:51:34.849Z,3.97
2023-02-28T07:54:01.424Z,3.13
2023-02-28T07:56:32.136Z,3.60
2023-02-28T07:58:58.791Z,3.42
2023-02-28T08:01:25.310Z,3.42
2023-02-28T08:03:51.806Z,3.45
2023-02-28T08:06:22.853Z,3.25
2023-02-28T08:08:49.910Z,3.28
2023-02-28T08:11:17.732Z,3.78
2023-02-28T08:13:45.649Z,3.80
2023-02-28T08:16:18.395Z,3.60
2023-02-28T08:18:45.071Z,4.13
2023-02-28T08:21:13.572Z,4.00
2023-02-28T08:23:44.650Z,4.00
2023-02-28T08:26:13.149Z,3.60
2023-02-28T08:28:42.367Z,4.20
2023-02-28T08:31:18.021Z,3.83
2023-02-28T08:33:45.630Z,3.95
2023-02-28T08:36:12.193Z,3.90
2023-02-28T08:38:41.243Z,3.95
2023-02-28T08:41:10.663Z,4.22
2023-02-28T08:43:37.859Z,3.80
2023-02-28T08:46:05.376Z,3.97
2023-02-28T08:48:33.888Z,4.10
2023-02-28T08:51:07.710Z,3.67
2023-02-28T08:53:34.870Z,3.70
2023-02-28T08:56:07.214Z,3.65
2023-02-28T08:58:35.193Z,3.03
2023-02-28T09:01:08.275Z,3.65
2023-02-28T09:03:34.767Z,4.00
2023-02-28T09:06:01.831Z,3.97
2023-02-28T09:08:31.462Z,3.78
2023-02-28T09:10:59.478Z,3.92
2023-02-28T09:13:27.718Z,3.28
2023-02-28T09:15:55.218Z,3.95
2023-02-28T09:18:22.303Z,3.80
2023-02-28T09:20:48.763Z,3.72
2023-02-28T09:23:15.486Z,3.30
2023-02-28T09:25:50.421Z,3.35
2023-02-28T09:28:17.757Z,3.80
2023-02-28T09:30:49.811Z,3.72
2023-02-28T09:33:18.069Z,3.10
2023-02-28T09:35:53.248Z,3.58
2023-02-28T09:38:19.701Z,3.58
2023-02-28T09:40:51.766Z,3.20
2023-02-28T09:43:21.025Z,3.55
2023-02-28T09:46:32.733Z,3.50
2023-02-28T09:49:02.948Z,4.32
2023-02-28T09:51:52.385Z,3.78
2023-02-28T09:54:23.142Z,3.67
2023-02-28T09:57:16.558Z,3.63
2023-02-28T09:59:56.388Z,3.30
2023-02-28T10:02:32.568Z,3.55
2023-02-28T10:05:15.681Z,3.40
2023-02-28T10:08:15.208Z,3.95
2023-02-28T10:10:49.570Z,3.78
2023-02-28T10:13:30.948Z,3.40
2023-02-28T10:16:04.220Z,3.55
2023-02-28T10:18:46.259Z,3.53
2023-02-28T10:21:24.743Z,4.55
2023-02-28T10:24:06.054Z,3.90
2023-02-28T10:26:34.089Z,3.67
2023-02-28T10:29:01.028Z,3.63
2023-02-28T10:31:27.819Z,4.28
2023-02-28T10:33:54.312Z,3.88
2023-02-28T10:36:22.137Z,3.90
2023-02-28T10:38:49.389Z,3.72
2023-02-28T10:41:27.642Z,2.80
2023-02-28T10:43:54.164Z,3.20
2023-02-28T10:46:27.045Z,4.03
2023-02-28T10:49:13.555Z,3.90
2023-02-28T10:51:42.077Z,3.95
2023-02-28T10:54:23.171Z,3.35
2023-02-28T10:57:19.827Z,3.70
2023-02-28T11:00:06.401Z,3.47
2023-02-28T11:02:36.228Z,3.47
2023-02-28T11:05:03.330Z,3.63
2023-02-28T11:07:37.330Z,4.05
2023-02-28T11:10:20.934Z,4.38
2023-02-28T11:12:52.874Z,3.25
2023-02-28T11:15:27.888Z,4.07
2023-02-28T11:17:59.192Z,3.92
2023-02-28T11:20:29.184Z,3.47
2023-02-28T11:22:57.013Z,3.42
2023-02-28T11:25:35.881Z,3.35
2023-02-28T11:28:07.310Z,3.35
2023-02-28T11:30:41.725Z,4.10
2023-02-28T11:33:30.589Z,3.83
2023-02-28T11:36:02.866Z,3.33
2023-02-28T11:38:29.636Z,3.60
2023-02-28T11:41:05.468Z,3.47
2023-02-28T11:43:56.447Z,3.83
2023-02-28T11:46:45.744Z,3.47
2023-02-28T11:50:02.166Z,4.63
2023-02-28T11:52:40.350Z,4.00
2023-02-28T11:55:09.916Z,4.32
2023-02-28T11:57:57.797Z,4.75
2023-02-28T12:00:59.863Z,3.63
2023-02-28T12:03:34.579Z,3.95
2023-02-28T12:06:24.089Z,3.53
2023-02-28T12:09:33.198Z,4.10
2023-02-28T12:12:31.114Z,3.33
2023-02-28T12:15:30.202Z,4.15
2023-02-28T12:18:11.690Z,3.90
2023-02-28T12:20:47.000Z,3.78
2023-02-28T12:23:48.405Z,3.97
2023-02-28T12:26:28.853Z,4.00
2023-02-28T12:29:11.077Z,4.07
2023-02-28T12:31:46.854Z,3.70
2023-02-28T12:34:24.224Z,4.25
2023-02-28T12:36:54.857Z,4.00
2023-02-28T12:39:32.591Z,4.30
2023-02-28T12:42:18.161Z,4.13
2023-02-28T12:44:54.111Z,3.60
2023-02-28T12:47:20.850Z,4.25
2023-02-28T12:49:52.631Z,3.90
2023-02-28T12:52:52.092Z,4.30
2023-02-28T12:55:37.016Z,3.65
2023-02-28T12:58:16.903Z,3.75
2023-02-28T13:01:04.204Z,3.97
2023-02-28T13:04:05.169Z,4.45
2023-02-28T13:06:43.748Z,4.50
2023-02-28T13:09:16.569Z,3.80
2023-02-28T13:11:52.111Z,3.67
2023-02-28T13:14:24.749Z,3.85
2023-02-28T13:16:58.217Z,3.97
2023-02-28T13:19:27.706Z,3.90
2023-02-28T13:21:56.637Z,3.80
2023-02-28T13:24:35.396Z,3.42
2023-02-28T13:27:01.782Z,3.83
2023-02-28T13:29:45.420Z,3.95
2023-02-28T13:32:11.852Z,4.13
2023-02-28T13:34:40.670Z,4.28
2023-02-28T13:37:19.121Z,4.43
2023-02-28T13:39:49.871Z,4.60
2023-02-28T13:42:22.350Z,3.65
2023-02-28T13:45:04.118Z,3.75
2023-02-28T13:47:50.050Z,3.55
2023-02-28T13:50:30.479Z,4.72
2023-02-28T13:53:16.730Z,3.92
2023-02-28T13:55:54.670Z,5.03
2023-02-28T13:58:43.239Z,4.97
2023-02-28T14:01:45.922Z,4.72
2023-02-28T14:05:17.415Z,4.32
2023-02-28T14:07:51.775Z,5.97
2023-02-28T14:10:42.379Z,4.95
2023-02-28T14:13:13.683Z,5.20
2023-02-28T14:15:48.064Z,4.63
2023-02-28T14:18:32.019Z,4.95
2023-02-28T14:23:36.891Z,5.55
2023-02-28T14:26:17.838Z,4.97
2023-02-28T14:28:53.614Z,5.50
2023-02-28T14:31:25.423Z,4.53
2023-02-28T14:34:20.983Z,5.90
2023-02-28T14:36:50.109Z,5.45
2023-02-28T14:39:20.762Z,5.15
2023-02-28T14:41:47.598Z,4.72
2023-02-28T14:44:18.777Z,4.80
2023-02-28T14:46:47.549Z,5.60
2023-02-28T14:49:35.252Z,5.60
2023-02-28T14:52:13.743Z,5.55
2023-02-28T14:54:41.067Z,5.93
2023-02-28T14:57:26.341Z,5.80
2023-02-28T15:00:24.122Z,6.10
2023-02-28T15:02:50.942Z,6.57
2023-02-28T15:05:25.591Z,5.85
2023-02-28T15:08:04.212Z,7.07
2023-02-28T15:10:31.597Z,7.07
2023-02-28T15:13:16.006Z,5.80
2023-02-28T15:16:01.327Z,6.32
2023-02-28T15:18:43.006Z,5.80
2023-02-28T15:21:17.782Z,6.05
2023-02-28T15:23:50.685Z,6.50
2023-02-28T15:26:20.277Z,6.20
2023-02-28T15:28:46.900Z,6.45
2023-02-28T15:31:35.573Z,6.85
2023-02-28T15:34:07.586Z,6.47
2023-02-28T15:36:38.155Z,13.52
2023-02-28T15:39:20.441Z,22.33
2023-02-28T15:41:46.977Z,9.35
2023-02-28T15:44:27.972Z,6.78
2023-02-28T15:46:56.231Z,9.15
2023-02-28T15:49:24.708Z,7.20
2023-02-28T15:51:55.444Z,7.13
2023-02-28T15:54:30.293Z,7.63
2023-02-28T15:57:00.538Z,7.28
2023-02-28T15:59:32.246Z,7.57
2023-02-28T16:02:19.488Z,7.63
2023-02-28T16:05:18.819Z,7.55
2023-02-28T16:07:45.967Z,7.90
2023-02-28T16:10:15.183Z,6.82
2023-02-28T16:12:42.608Z,9.02
2023-02-28T16:15:31.278Z,6.63
2023-02-28T16:17:58.690Z,8.35
2023-02-28T16:20:27.682Z,25.77
2023-02-28T16:22:54.305Z,9.52
2023-02-28T16:25:24.555Z,8.65
2023-02-28T16:27:54.933Z,7.60
2023-02-28T16:30:23.644Z,7.07
2023-02-28T16:32:50.881Z,7.25
2023-02-28T16:35:18.908Z,6.90
2023-02-28T16:37:45.763Z,6.97
2023-02-28T16:40:17.959Z,8.02
2023-02-28T16:42:46.905Z,7.93
2023-02-28T16:45:20.226Z,8.35
2023-02-28T16:47:47.682Z,7.50
2023-02-28T16:50:16.227Z,7.45
2023-02-28T16:52:42.890Z,7.60
2023-02-28T16:55:12.032Z,7.63
2023-02-28T16:57:39.845Z,6.97
2023-02-28T17:00:09.104Z,7.82
2023-02-28T17:02:35.978Z,7.65
2023-02-28T17:05:02.660Z,8.05
2023-02-28T17:07:29.127Z,8.27
2023-02-28T17:09:55.740Z,8.15
2023-02-28T17:12:22.218Z,7.45
2023-02-28T17:14:48.687Z,7.50
2023-02-28T17:17:22.727Z,8.10
2023-02-28T17:19:49.413Z,8.00
2023-02-28T17:22:15.813Z,7.55
2023-02-28T17:24:42.260Z,8.45
2023-02-28T17:27:13.229Z,7.60
2023-02-28T17:29:39.668Z,8.13
2023-02-28T17:32:17.210Z,8.57
2023-02-28T17:34:45.165Z,8.48
2023-02-28T17:37:14.732Z,7.55
2023-02-28T17:39:41.263Z,9.02
2023-02-28T17:42:09.001Z,8.88
2023-02-28T17:44:35.547Z,9.68
2023-02-28T17:47:02.061Z,8.38
2023-02-28T17:49:29.713Z,9.70
2023-02-28T17:51:56.190Z,9.90
2023-02-28T17:54:22.649Z,9.02
2023-02-28T17:56:49.065Z,9.52
2023-02-28T17:59:15.540Z,9.70
2023-02-28T18:01:42.045Z,9.05
2023-02-28T18:04:08.532Z,10.57
2023-02-28T18:06:47.365Z,10.88
2023-02-28T18:09:23.701Z,11.15
2023-02-28T18:11:51.629Z,8.52
2023-02-28T18:14:19.676Z,9.40
2023-02-28T18:16:49.468Z,8.95
2023-02-28T18:19:19.200Z,10.02
2023-02-28T18:21:51.940Z,10.02
2023-02-28T18:24:21.646Z,10.07
2023-02-28T18:26:48.089Z,10.32
2023-02-28T18:29:23.938Z,10.65
2023-02-28T18:31:51.722Z,10.25
2023-02-28T18:34:18.763Z,11.85
2023-02-28T18:36:47.201Z,10.73
2023-02-28T18:39:14.185Z,11.10
2023-02-28T18:41:40.826Z,10.80
2023-02-28T18:44:17.696Z,12.32
2023-02-28T18:46:46.102Z,10.77
2023-02-28T18:49:12.719Z,10.38
2023-02-28T18:51:39.263Z,11.05
2023-02-28T18:54:05.820Z,11.02
2023-02-28T18:56:32.542Z,11.13
2023-02-28T18:58:59.169Z,9.98
2023-02-28T19:01:32.602Z,12.88
2023-02-28T19:04:01.219Z,10.18
2023-02-28T19:06:30.019Z,11.38
2023-02-28T19:08:58.944Z,11.85
2023-02-28T19:11:26.821Z,11.43
2023-02-28T19:13:53.841Z,11.77
2023-02-28T19:16:22.330Z,10.68
2023-02-28T19:18:48.865Z,11.52
2023-02-28T19:21:17.773Z,10.85
2023-02-28T19:23:44.631Z,11.25
2023-02-28T19:26:15.513Z,10.63
2023-02-28T19:28:42.941Z,10.75
2023-02-28T19:31:25.093Z,10.68
2023-02-28T19:33:53.032Z,12.13
2023-02-28T19:36:19.693Z,12.30
2023-02-28T19:38:46.521Z,12.18
2023-02-28T19:41:14.767Z,12.38
2023-02-28T19:43:41.271Z,11.55
2023-02-28T19:46:09.615Z,12.50
2023-02-28T19:48:36.847Z,11.68
2023-02-28T19:51:10.396Z,12.55
2023-02-28T19:56:04.890Z,12.05
2023-02-28T19:58:31.707Z,11.80
2023-02-28T20:01:01.141Z,12.95
2023-02-28T20:03:27.606Z,13.20
2023-02-28T20:06:02.626Z,12.95
2023-02-28T20:08:29.152Z,12.82
2023-02-28T20:10:55.589Z,13.02
2023-02-28T20:13:25.885Z,14.18
2023-02-28T20:15:54.663Z,12.65
2023-02-28T20:18:21.158Z,12.60
2023-02-28T20:20:47.560Z,13.07
2023-02-28T20:23:13.957Z,12.70
2023-02-28T20:25:41.896Z,12.68
2023-02-28T20:28:08.422Z,12.82
2023-02-28T20:30:34.872Z,12.82
2023-02-28T20:33:01.681Z,13.57
2023-02-28T20:35:28.162Z,12.85
2023-02-28T20:37:54.991Z,13.18
2023-02-28T20:40:21.407Z,13.73
2023-02-28T20:42:47.811Z,14.02
2023-02-28T20:45:14.217Z,13.32
2023-02-28T20:47:42.527Z,13.30
2023-02-28T20:50:09.943Z,13.13
2023-02-28T20:52:36.418Z,14.23
2023-02-28T20:55:02.810Z,13.60
2023-02-28T20:57:30.648Z,13.93
2023-02-28T20:59:57.041Z,14.88
2023-02-28T21:02:23.546Z,14.82
2023-02-28T21:04:52.487Z,15.30
2023-02-28T21:07:19.062Z,15.90
2023-02-28T21:09:45.628Z,15.52
2023-02-28T21:12:12.071Z,15.48
2023-02-28T21:14:38.498Z,14.43
2023-02-28T21:17:08.530Z,15.93
2023-02-28T21:19:34.939Z,14.60
2023-02-28T21:22:01.507Z,13.82
2023-02-28T21:24:27.959Z,15.25
2023-02-28T21:26:56.876Z,14.43
2023-02-28T21:29:23.740Z,16.02
2023-02-28T21:31:56.012Z,14.18
2023-02-28T21:34:23.023Z,15.10
2023-02-28T21:36:49.417Z,15.75
2023-02-28T21:39:23.299Z,15.10
2023-02-28T21:41:49.804Z,15.35
2023-02-28T21:44:19.340Z,15.30
2023-02-28T21:46:47.813Z,14.55
2023-02-28T21:49:14.959Z,14.43
2023-02-28T21:51:42.774Z,14.88
2023-02-28T21:54:10.812Z,15.25
2023-02-28T21:56:37.513Z,13.95
2023-02-28T21:59:04.408Z,15.93
2023-02-28T22:01:37.106Z,15.10
2023-02-28T22:04:06.108Z,15.23
2023-02-28T22:06:35.788Z,15.45
2023-02-28T22:09:06.027Z,16.75
2023-02-28T22:11:33.837Z,15.50
2023-02-28T22:14:06.639Z,15.32
2023-02-28T22:16:50.290Z,15.40
2023-02-28T22:19:17.943Z,15.93
2023-02-28T22:21:45.673Z,15.18
2023-02-28T22:24:12.270Z,17.10
2023-02-28T22:26:38.701Z,15.57
2023-02-28T22:29:08.548Z,15.70
2023-02-28T22:31:36.287Z,15.88
2023-02-28T22:34:08.750Z,15.50
2023-02-28T22:36:35.623Z,14.93
2023-02-28T22:39:03.191Z,17.27
2023-02-28T22:41:30.472Z,15.23
2023-02-28T22:44:01.981Z,16.58
2023-02-28T22:46:31.678Z,15.80
2023-02-28T22:48:59.733Z,19.48
2023-02-28T22:51:27.439Z,17.95
2023-02-28T22:53:55.860Z,17.98
2023-02-28T22:56:24.598Z,17.65
2023-02-28T22:58:52.776Z,17.75
2023-02-28T23:01:21.983Z,18.33
2023-02-28T23:03:48.617Z,17.38
2023-02-28T23:06:19.643Z,17.70
2023-02-28T23:08:46.375Z,17.95
2023-02-28T23:11:20.327Z,17.08
2023-02-28T23:13:58.250Z,17.73
2023-02-28T23:16:36.400Z,16.95
2023-02-28T23:19:06.653Z,17.88
2023-02-28T23:21:34.342Z,16.83
2023-02-28T23:24:02.782Z,15.77
2023-02-28T23:26:31.253Z,16.17
2023-02-28T23:28:59.302Z,15.40
2023-02-28T23:31:25.859Z,17.15
2023-02-28T23:33:52.564Z,17.13
2023-02-28T23:36:19.204Z,17.23
2023-02-28T23:38:48.922Z,17.35
2023-02-28T23:41:21.265Z,16.50
2023-02-28T23:43:47.944Z,16.90
2023-02-28T23:46:16.238Z,17.33
2023-02-28T23:48:43.310Z,17.40
2023-02-28T23:51:16.599Z,18.80
2023-02-28T23:53:45.916Z,16.63
2023-02-28T23:56:14.847Z,18.13
2023-02-28T23:58:42.406Z,17.13
